createdAt,value
2018-06-13T00:00:38.356Z,71.95
2018-06-13T00:01:38.465Z,71.78
2018-06-13T00:02:38.276Z,71.43
2018-06-13T00:03:38.272Z,71.61
2018-06-13T00:04:38.502Z,71.63
2018-06-13T00:05:38.278Z,71.86
2018-06-13T00:06:38.285Z,72
2018-06-13T00:07:38.292Z,71.49
2018-06-13T00:08:38.294Z,71.6
2018-06-13T00:09:38.279Z,72.1
2018-06-13T00:10:38.335Z,72.01
2018-06-13T00:11:38.268Z,71.97
2018-06-13T00:12:38.399Z,72.38
2018-06-13T00:13:38.289Z,72.17
2018-06-13T00:14:38.268Z,72.11
2018-06-13T00:15:38.271Z,71.87
2018-06-13T00:16:38.291Z,71.88
2018-06-13T00:17:38.264Z,72.31
2018-06-13T00:18:38.287Z,71.87
2018-06-13T00:19:38.300Z,71.99
2018-06-13T00:20:38.339Z,71.67
2018-06-13T00:21:38.298Z,71.47
2018-06-13T00:22:38.704Z,71.79
2018-06-13T00:23:38.416Z,71.95
2018-06-13T00:24:38.594Z,72.02
2018-06-13T00:25:38.379Z,71.59
2018-06-13T00:26:38.284Z,71.61
2018-06-13T00:27:38.276Z,71.77
2018-06-13T00:28:38.468Z,71.76
2018-06-13T00:29:38.278Z,71.52
2018-06-13T00:30:38.292Z,71.49
2018-06-13T00:31:38.269Z,71.8
2018-06-13T00:32:38.368Z,71.69
2018-06-13T00:33:38.318Z,71.3
2018-06-13T00:34:38.315Z,71.32
2018-06-13T00:35:38.293Z,71.55
2018-06-13T00:36:38.286Z,71.34
2018-06-13T00:37:38.293Z,71.83
2018-06-13T00:38:38.299Z,71.78
2018-06-13T00:39:38.324Z,71.71
2018-06-13T00:40:38.304Z,71.68
2018-06-13T00:41:38.277Z,71.83
2018-06-13T00:42:38.320Z,71.71
2018-06-13T00:43:38.334Z,71.97
2018-06-13T00:44:38.366Z,71.78
2018-06-13T00:45:38.364Z,71.64
2018-06-13T00:46:38.405Z,71.91
2018-06-13T00:47:38.347Z,71.49
2018-06-13T00:48:38.409Z,71.1
2018-06-13T00:49:38.359Z,71.29
2018-06-13T00:50:38.340Z,71.21
2018-06-13T00:51:38.323Z,71.44
2018-06-13T00:52:38.392Z,71.64
2018-06-13T00:53:38.326Z,71.17
2018-06-13T00:54:38.311Z,71.59
2018-06-13T00:55:38.297Z,71.72
2018-06-13T00:56:38.286Z,72.1
2018-06-13T00:57:38.287Z,71.98
2018-06-13T00:58:38.284Z,71.97
2018-06-13T00:59:38.300Z,72.39
2018-06-13T01:00:38.305Z,71.83
2018-06-13T01:01:38.297Z,71.92
2018-06-13T01:02:38.293Z,71.79
2018-06-13T01:03:38.299Z,72.07
2018-06-13T01:04:38.537Z,71.85
2018-06-13T01:05:38.296Z,72.04
2018-06-13T01:06:38.296Z,72.07
2018-06-13T01:07:38.499Z,72.33
2018-06-13T01:08:38.401Z,72.14
2018-06-13T01:09:38.509Z,72.2
2018-06-13T01:10:40.133Z,72.69
2018-06-13T01:11:38.310Z,72.71
2018-06-13T01:12:38.302Z,72.85
2018-06-13T01:13:38.545Z,72.57
2018-06-13T01:14:38.397Z,72.67
2018-06-13T01:15:38.316Z,73.04
2018-06-13T01:16:38.352Z,73.02
2018-06-13T01:17:38.311Z,72.89
2018-06-13T01:18:38.316Z,73.12
2018-06-13T01:19:38.497Z,73.34
2018-06-13T01:20:38.308Z,73.51
2018-06-13T01:21:38.362Z,73.7
2018-06-13T01:22:38.321Z,73.66
2018-06-13T01:23:38.421Z,73.7
2018-06-13T01:24:38.625Z,74.17
2018-06-13T01:25:38.304Z,74.13
2018-06-13T01:26:38.344Z,74.35
2018-06-13T01:27:38.395Z,74.62
2018-06-13T01:28:38.343Z,74.67
2018-06-13T01:29:38.434Z,74.58
2018-06-13T01:30:38.363Z,74.84
2018-06-13T01:31:38.312Z,74.35
2018-06-13T01:32:38.416Z,74.94
2018-06-13T01:33:38.320Z,74.91
2018-06-13T01:34:38.368Z,74.58
2018-06-13T01:35:38.451Z,74.66
2018-06-13T01:36:38.321Z,74.67
2018-06-13T01:37:38.356Z,75.07
2018-06-13T01:38:38.355Z,74.92
2018-06-13T01:39:38.370Z,74.99
2018-06-13T01:40:38.338Z,74.98
2018-06-13T01:41:38.339Z,74.9
2018-06-13T01:42:38.319Z,75.13
2018-06-13T01:43:38.372Z,74.86
2018-06-13T01:44:38.507Z,74.85
2018-06-13T01:45:38.370Z,75.13
2018-06-13T01:46:38.367Z,75.14
2018-06-13T01:47:38.415Z,75.04
2018-06-13T01:48:38.505Z,75.17
2018-06-13T01:49:38.356Z,75.4
2018-06-13T01:50:38.327Z,75.28
2018-06-13T01:51:38.391Z,75.37
2018-06-13T01:52:38.435Z,75.57
2018-06-13T01:53:38.463Z,75.58
2018-06-13T01:54:38.396Z,75.71
2018-06-13T01:55:38.354Z,76.14
2018-06-13T01:56:38.426Z,76.09
2018-06-13T01:57:38.345Z,75.99
2018-06-13T01:58:38.367Z,75.99
2018-06-13T01:59:38.387Z,75.95
2018-06-13T02:00:38.364Z,76.15
2018-06-13T02:01:38.320Z,76.3
2018-06-13T02:02:38.329Z,76.12
2018-06-13T02:03:38.329Z,76.26
2018-06-13T02:04:38.340Z,76.19
2018-06-13T02:05:38.340Z,76.27
2018-06-13T02:06:38.344Z,76.12
2018-06-13T02:07:38.331Z,76.3
2018-06-13T02:08:38.342Z,76.39
2018-06-13T02:09:38.347Z,76.32
2018-06-13T02:10:38.354Z,76.63
2018-06-13T02:11:38.366Z,76.47
2018-06-13T02:12:38.328Z,76.86
2018-06-13T02:13:38.329Z,76.71
2018-06-13T02:14:38.345Z,76.81
2018-06-13T02:15:38.355Z,76.61
2018-06-13T02:16:38.330Z,76.73
2018-06-13T02:17:38.397Z,76.55
2018-06-13T02:18:38.447Z,76.66
2018-06-13T02:19:38.406Z,76.8
2018-06-13T02:20:38.503Z,76.89
2018-06-13T02:21:38.376Z,76.7
2018-06-13T02:22:38.400Z,76.72
2018-06-13T02:23:38.348Z,76.9
2018-06-13T02:24:38.348Z,76.72
2018-06-13T02:25:38.360Z,76.69
2018-06-13T02:26:38.363Z,76.9
2018-06-13T02:27:38.354Z,77.17
2018-06-13T02:28:38.368Z,76.72
2018-06-13T02:29:38.362Z,76.94
2018-06-13T02:30:38.418Z,76.51
2018-06-13T02:31:38.591Z,76.64
2018-06-13T02:32:38.342Z,76.81
2018-06-13T02:33:38.347Z,76.66
2018-06-13T02:34:38.344Z,76.65
2018-06-13T02:35:38.345Z,76.75
2018-06-13T02:36:38.452Z,76.79
2018-06-13T02:37:38.470Z,76.98
2018-06-13T02:38:38.362Z,76.86
2018-06-13T02:39:38.345Z,76.99
2018-06-13T02:40:38.388Z,77.2
2018-06-13T02:41:38.427Z,77.49
2018-06-13T02:42:38.362Z,77.53
2018-06-13T02:43:38.380Z,77.3
2018-06-13T02:44:38.376Z,77.77
2018-06-13T02:45:38.390Z,77.85
2018-06-13T02:46:38.407Z,77.76
2018-06-13T02:47:38.369Z,77.99
2018-06-13T02:48:38.378Z,77.74
2018-06-13T02:49:38.346Z,77.82
2018-06-13T02:50:38.423Z,77.81
2018-06-13T02:51:38.370Z,77.9
2018-06-13T02:52:38.361Z,77.9
2018-06-13T02:53:38.417Z,77.93
2018-06-13T02:54:38.400Z,78.05
2018-06-13T02:55:38.362Z,78.29
2018-06-13T02:56:38.370Z,78.29
2018-06-13T02:57:38.443Z,78.4
2018-06-13T02:58:38.378Z,78.27
2018-06-13T02:59:38.470Z,78.45
2018-06-13T03:00:38.363Z,78.52
2018-06-13T03:01:38.401Z,78.11
2018-06-13T03:02:38.378Z,78.02
2018-06-13T03:03:38.355Z,78.33
2018-06-13T03:04:38.387Z,78.22
2018-06-13T03:05:38.353Z,78.4
2018-06-13T03:06:38.359Z,78.43
2018-06-13T03:07:38.522Z,78.6
2018-06-13T03:08:38.358Z,78.68
2018-06-13T03:09:38.353Z,78.57
2018-06-13T03:10:38.357Z,78.54
2018-06-13T03:11:38.367Z,78.48
2018-06-13T03:12:38.386Z,78.77
2018-06-13T03:13:38.561Z,78.68
2018-06-13T03:14:38.388Z,78.67
2018-06-13T03:15:38.388Z,79.02
2018-06-13T03:16:38.382Z,78.78
2018-06-13T03:17:38.405Z,78.92
2018-06-13T03:18:38.379Z,78.81
2018-06-13T03:19:38.348Z,78.72
2018-06-13T03:20:38.359Z,78.8
2018-06-13T03:21:38.356Z,78.82
2018-06-13T03:22:38.365Z,79.01
2018-06-13T03:23:38.371Z,79.04
2018-06-13T03:24:38.373Z,78.94
2018-06-13T03:25:38.366Z,78.74
2018-06-13T03:26:38.373Z,78.51
2018-06-13T03:27:38.613Z,78.62
2018-06-13T03:28:38.378Z,78.57
2018-06-13T03:29:38.389Z,78.35
2018-06-13T03:30:38.388Z,78.68
2018-06-13T03:31:38.390Z,78.94
2018-06-13T03:32:38.483Z,78.76
2018-06-13T03:33:38.917Z,78.84
2018-06-13T03:34:38.378Z,78.75
2018-06-13T03:35:38.387Z,78.79
2018-06-13T03:36:38.407Z,78.88
2018-06-13T03:37:38.365Z,78.9
2018-06-13T03:38:38.396Z,78.97
2018-06-13T03:39:38.407Z,79.09
2018-06-13T03:40:38.450Z,79.2
2018-06-13T03:41:38.381Z,79.44
2018-06-13T03:42:38.452Z,79.38
2018-06-13T03:43:38.373Z,78.95
2018-06-13T03:44:38.391Z,79.21
2018-06-13T03:45:38.382Z,79.17
2018-06-13T03:46:38.391Z,79.06
2018-06-13T03:47:38.412Z,79.03
2018-06-13T03:48:38.440Z,78.93
2018-06-13T03:49:38.409Z,78.87
2018-06-13T03:50:38.415Z,79.08
2018-06-13T03:51:38.395Z,79.04
2018-06-13T03:52:38.421Z,79
2018-06-13T03:53:38.529Z,78.98
2018-06-13T03:54:38.424Z,79.07
2018-06-13T03:55:38.377Z,79.23
2018-06-13T03:56:38.534Z,79.1
2018-06-13T03:57:38.500Z,79.19
2018-06-13T03:58:38.484Z,79.24
2018-06-13T03:59:38.382Z,79.17
2018-06-13T04:00:38.390Z,79.29
2018-06-13T04:01:38.466Z,79.29
2018-06-13T04:02:38.438Z,79.1
2018-06-13T04:03:38.634Z,79.07
2018-06-13T04:04:38.403Z,79.03
2018-06-13T04:05:38.598Z,79.01
2018-06-13T04:06:38.474Z,78.69
2018-06-13T04:07:38.401Z,78.82
2018-06-13T04:08:38.398Z,78.89
2018-06-13T04:09:38.385Z,78.84
2018-06-13T04:10:38.471Z,78.96
2018-06-13T04:11:38.431Z,79.1
2018-06-13T04:12:38.435Z,79.01
2018-06-13T04:13:38.446Z,79.02
2018-06-13T04:14:38.420Z,79.04
2018-06-13T04:15:38.399Z,79.07
2018-06-13T04:16:38.484Z,78.94
2018-06-13T04:17:38.416Z,78.89
2018-06-13T04:18:38.434Z,79.02
2018-06-13T04:19:38.412Z,79.32
2018-06-13T04:20:38.418Z,78.72
2018-06-13T04:21:38.418Z,78.78
2018-06-13T04:22:38.404Z,78.86
2018-06-13T04:23:38.433Z,78.93
2018-06-13T04:24:38.403Z,78.81
2018-06-13T04:25:38.415Z,78.78
2018-06-13T04:26:38.409Z,78.67
2018-06-13T04:27:38.397Z,78.59
2018-06-13T04:28:38.411Z,78.89
2018-06-13T04:29:38.407Z,78.71
2018-06-13T04:30:38.437Z,78.71
2018-06-13T04:31:38.427Z,78.69
2018-06-13T04:32:38.424Z,78.56
2018-06-13T04:33:38.464Z,78.36
2018-06-13T04:34:38.427Z,78.6
2018-06-13T04:35:38.418Z,78.38
2018-06-13T04:36:38.418Z,78.41
2018-06-13T04:37:38.404Z,78.42
2018-06-13T04:38:38.421Z,78.49
2018-06-13T04:39:38.437Z,78.4
2018-06-13T04:40:38.427Z,78.17
2018-06-13T04:41:38.420Z,78.54
2018-06-13T04:42:38.405Z,78.47
2018-06-13T04:43:38.408Z,78.58
2018-06-13T04:44:38.417Z,78.34
2018-06-13T04:45:38.422Z,78.04
2018-06-13T04:46:38.432Z,78.35
2018-06-13T04:47:38.423Z,78.39
2018-06-13T04:48:38.422Z,78.27
2018-06-13T04:49:38.461Z,78.14
2018-06-13T04:50:38.479Z,78.27
2018-06-13T04:51:38.569Z,78.24
2018-06-13T04:52:38.435Z,77.99
2018-06-13T04:53:38.424Z,78.06
2018-06-13T04:54:38.460Z,77.66
2018-06-13T04:55:38.423Z,77.4
2018-06-13T04:56:38.428Z,77.68
2018-06-13T04:57:38.774Z,77.77
2018-06-13T04:58:38.607Z,77.79
2018-06-13T04:59:38.411Z,77.88
2018-06-13T05:00:38.416Z,77.89
2018-06-13T05:01:38.428Z,77.97
2018-06-13T05:02:38.487Z,77.64
2018-06-13T05:03:38.563Z,77.55
2018-06-13T05:04:38.467Z,77.58
2018-06-13T05:05:38.457Z,77.72
2018-06-13T05:06:38.435Z,77.81
2018-06-13T05:07:38.478Z,77.97
2018-06-13T05:08:38.477Z,77.93
2018-06-13T05:09:38.447Z,77.88
2018-06-13T05:10:38.503Z,77.75
2018-06-13T05:11:38.441Z,78.19
2018-06-13T05:12:38.449Z,78.12
2018-06-13T05:13:38.581Z,77.97
2018-06-13T05:14:38.427Z,77.89
2018-06-13T05:15:38.455Z,78.04
2018-06-13T05:16:38.495Z,77.82
2018-06-13T05:17:38.482Z,77.54
2018-06-13T05:18:38.446Z,77.97
2018-06-13T05:19:38.449Z,77.64
2018-06-13T05:20:38.445Z,77.4
2018-06-13T05:21:38.501Z,77.86
2018-06-13T05:22:38.450Z,77.89
2018-06-13T05:23:38.472Z,77.4
2018-06-13T05:24:38.447Z,77.69
2018-06-13T05:25:38.454Z,77.72
2018-06-13T05:26:38.472Z,77.89
2018-06-13T05:27:38.565Z,77.51
2018-06-13T05:28:38.518Z,77.47
2018-06-13T05:29:38.455Z,77.57
2018-06-13T05:30:38.472Z,77.45
2018-06-13T05:31:38.431Z,77.41
2018-06-13T05:32:38.541Z,77.14
2018-06-13T05:33:38.445Z,77.27
2018-06-13T05:34:38.452Z,77.01
2018-06-13T05:35:38.456Z,77.21
2018-06-13T05:36:38.429Z,77.05
2018-06-13T05:37:38.479Z,76.87
2018-06-13T05:38:38.485Z,76.81
2018-06-13T05:39:38.451Z,76.7
2018-06-13T05:40:38.453Z,76.41
2018-06-13T05:41:38.474Z,76.07
2018-06-13T05:42:38.469Z,75.45
2018-06-13T05:43:38.444Z,75.45
2018-06-13T05:44:38.488Z,75.4
2018-06-13T05:45:38.460Z,75.92
2018-06-13T05:46:38.441Z,75.5
2018-06-13T05:47:38.475Z,75.29
2018-06-13T05:48:38.497Z,75.34
2018-06-13T05:49:38.449Z,74.76
2018-06-13T05:50:38.451Z,74.73
2018-06-13T05:51:38.436Z,74.04
2018-06-13T05:52:38.514Z,73.65
2018-06-13T05:53:38.451Z,73.99
2018-06-13T05:54:38.465Z,74.43
2018-06-13T05:55:38.484Z,74.65
2018-06-13T05:56:38.472Z,74.89
2018-06-13T05:57:38.468Z,74.97
2018-06-13T05:58:38.545Z,74.82
2018-06-13T05:59:38.473Z,75.25
2018-06-13T06:00:38.460Z,74.69
2018-06-13T06:01:38.536Z,74.87
2018-06-13T06:02:38.508Z,75.12
2018-06-13T06:03:38.497Z,75
2018-06-13T06:04:38.537Z,75.16
2018-06-13T06:05:38.700Z,75.54
2018-06-13T06:06:38.477Z,75.98
2018-06-13T06:07:38.481Z,75.27
2018-06-13T06:08:38.528Z,75.12
2018-06-13T06:09:38.476Z,75.14
2018-06-13T06:10:38.492Z,74.64
2018-06-13T06:11:38.507Z,74.28
2018-06-13T06:12:38.500Z,74.81
2018-06-13T06:13:38.902Z,74.44
2018-06-13T06:14:38.507Z,74.3
2018-06-13T06:15:38.525Z,73.99
2018-06-13T06:16:38.483Z,72.8
2018-06-13T06:17:38.516Z,72.5
2018-06-13T06:18:38.624Z,72.11
2018-06-13T06:19:38.566Z,71.37
2018-06-13T06:20:38.688Z,71.75
2018-06-13T06:21:38.501Z,71.39
2018-06-13T06:22:38.479Z,70.39
2018-06-13T06:23:38.565Z,70.64
2018-06-13T06:24:38.464Z,70.9
2018-06-13T06:25:38.561Z,70.15
2018-06-13T06:26:38.502Z,68.29
2018-06-13T06:27:38.609Z,68.89
2018-06-13T06:28:39.196Z,69.02
2018-06-13T06:29:38.524Z,69.17
2018-06-13T06:30:38.489Z,67.08
2018-06-13T06:31:38.498Z,67.6
2018-06-13T06:32:38.499Z,67.83
2018-06-13T06:33:38.497Z,66.77
2018-06-13T06:34:38.623Z,66.73
2018-06-13T06:35:38.495Z,67.4
2018-06-13T06:36:38.485Z,66.94
2018-06-13T06:37:38.533Z,65.42
2018-06-13T06:38:38.480Z,65.54
2018-06-13T06:39:38.497Z,65.27
2018-06-13T06:40:38.553Z,64.15
2018-06-13T06:41:38.502Z,64.01
2018-06-13T06:42:38.485Z,64.48
2018-06-13T06:43:38.519Z,65.03
2018-06-13T06:44:38.924Z,64.87
2018-06-13T06:45:38.490Z,64.83
2018-06-13T06:46:38.484Z,62.21
2018-06-13T06:47:38.499Z,61.39
2018-06-13T06:48:38.483Z,61.33
2018-06-13T06:49:38.524Z,60.76
2018-06-13T06:50:38.714Z,59.73
2018-06-13T06:51:38.502Z,60.82
2018-06-13T06:52:38.506Z,60.54
2018-06-13T06:53:38.490Z,60.6
2018-06-13T06:54:38.481Z,61.1
2018-06-13T06:55:38.548Z,61.73
2018-06-13T06:56:38.495Z,64
2018-06-13T06:57:38.529Z,68.9
2018-06-13T06:58:38.522Z,71.07
2018-06-13T06:59:38.504Z,71.84
2018-06-13T07:00:38.500Z,72.28
2018-06-13T07:01:38.646Z,72.04
2018-06-13T07:02:38.669Z,73.2
2018-06-13T07:03:38.499Z,73.65
2018-06-13T07:04:38.534Z,73.49
2018-06-13T07:05:38.539Z,73.88
2018-06-13T07:06:38.510Z,73.35
2018-06-13T07:07:38.478Z,73.92
2018-06-13T07:08:38.490Z,74.44
2018-06-13T07:09:38.550Z,74.6
2018-06-13T07:10:38.490Z,74.78
2018-06-13T07:11:38.517Z,74.91
2018-06-13T07:12:38.487Z,74.85
2018-06-13T07:13:38.540Z,74.47
2018-06-13T07:14:38.672Z,74.43
2018-06-13T07:15:38.780Z,74.67
2018-06-13T07:16:38.689Z,74.35
2018-06-13T07:17:38.533Z,74.56
2018-06-13T07:18:38.511Z,74.48
2018-06-13T07:19:38.559Z,74.77
2018-06-13T07:20:38.517Z,75.17
2018-06-13T07:21:38.515Z,74.59
2018-06-13T07:22:38.508Z,74.34
2018-06-13T07:23:38.577Z,73.9
2018-06-13T07:24:38.542Z,73.89
2018-06-13T07:25:38.488Z,73.67
2018-06-13T07:26:38.500Z,73.88
2018-06-13T07:27:38.507Z,73.57
2018-06-13T07:28:38.530Z,73.2
2018-06-13T07:29:38.488Z,72.21
2018-06-13T07:30:38.541Z,72.36
2018-06-13T07:31:38.494Z,72.41
2018-06-13T07:32:39.152Z,72.36
2018-06-13T07:33:38.578Z,72.6
2018-06-13T07:34:38.510Z,72.99
2018-06-13T07:35:38.531Z,71.86
2018-06-13T07:36:38.502Z,72.42
2018-06-13T07:37:38.684Z,71.85
2018-06-13T07:38:38.520Z,71.77
2018-06-13T07:39:38.505Z,70.84
2018-06-13T07:40:38.497Z,69.47
2018-06-13T07:41:38.558Z,70.89
2018-06-13T07:42:38.526Z,69.33
2018-06-13T07:43:38.513Z,69.11
2018-06-13T07:44:38.501Z,69.34
2018-06-13T07:45:38.503Z,69.78
2018-06-13T07:46:38.509Z,70.21
2018-06-13T07:47:38.761Z,70.01
2018-06-13T07:48:38.578Z,67.64
2018-06-13T07:49:38.552Z,68.47
2018-06-13T07:50:38.531Z,67.89
2018-06-13T07:51:38.630Z,68.26
2018-06-13T07:52:38.545Z,67.79
2018-06-13T07:53:38.518Z,67.25
2018-06-13T07:54:38.550Z,66.51
2018-06-13T07:55:38.559Z,65.76
2018-06-13T07:56:38.515Z,65.97
2018-06-13T07:57:38.524Z,66.35
2018-06-13T07:58:38.521Z,66.36
2018-06-13T07:59:38.574Z,66.98
2018-06-13T08:00:38.518Z,66.27
2018-06-13T08:01:38.515Z,65.1
2018-06-13T08:02:38.522Z,64.23
2018-06-13T08:03:38.536Z,64.48
2018-06-13T08:04:38.676Z,65.02
2018-06-13T08:05:38.524Z,64.58
2018-06-13T08:06:38.530Z,64.48
2018-06-13T08:07:38.627Z,63.91
2018-06-13T08:08:38.717Z,64.59
2018-06-13T08:09:38.564Z,64.27
2018-06-13T08:10:38.607Z,64.22
2018-06-13T08:11:38.510Z,63.72
2018-06-13T08:12:38.589Z,64.19
2018-06-13T08:13:38.511Z,64.44
2018-06-13T08:14:38.610Z,65.14
2018-06-13T08:15:38.567Z,64.62
2018-06-13T08:16:38.575Z,64.77
2018-06-13T08:17:38.643Z,64.87
2018-06-13T08:18:38.575Z,65.08
2018-06-13T08:19:38.595Z,64.92
2018-06-13T08:20:38.547Z,64.66
2018-06-13T08:21:38.534Z,65.24
2018-06-13T08:22:38.532Z,65.3
2018-06-13T08:23:38.529Z,64.41
2018-06-13T08:24:38.572Z,65.32
2018-06-13T08:25:38.676Z,65.3
2018-06-13T08:26:38.759Z,63.9
2018-06-13T08:27:38.771Z,64.03
2018-06-13T08:28:38.549Z,63.42
2018-06-13T08:29:38.528Z,64.06
2018-06-13T08:30:38.537Z,62.93
2018-06-13T08:31:38.530Z,63.5
2018-06-13T08:32:38.597Z,63.76
2018-06-13T08:33:38.601Z,62.65
2018-06-13T08:34:38.543Z,63.41
2018-06-13T08:35:38.540Z,63.54
2018-06-13T08:36:38.844Z,63.23
2018-06-13T08:37:38.583Z,63.7
2018-06-13T08:38:38.541Z,63.32
2018-06-13T08:39:38.539Z,62.96
2018-06-13T08:40:38.723Z,63.45
2018-06-13T08:41:38.539Z,63.34
2018-06-13T08:42:38.578Z,63.22
2018-06-13T08:43:38.583Z,63.6
2018-06-13T08:44:38.531Z,63.75
2018-06-13T08:45:38.579Z,63.83
2018-06-13T08:46:38.546Z,64.29
2018-06-13T08:47:38.639Z,63.08
2018-06-13T08:48:38.608Z,63.92
2018-06-13T08:49:38.782Z,63.85
2018-06-13T08:50:38.582Z,63.37
2018-06-13T08:51:38.548Z,63.49
2018-06-13T08:52:38.686Z,64.11
2018-06-13T08:53:38.592Z,63.65
2018-06-13T08:54:38.635Z,64.1
2018-06-13T08:55:38.574Z,64.31
2018-06-13T08:56:38.552Z,63.78
2018-06-13T08:57:38.601Z,64.25
2018-06-13T08:58:38.550Z,63.83
2018-06-13T08:59:38.690Z,64.34
2018-06-13T09:00:38.833Z,64.4
2018-06-13T09:01:38.558Z,64.45
2018-06-13T09:02:38.542Z,64.38
2018-06-13T09:03:38.553Z,63.96
2018-06-13T09:04:38.552Z,62.98
2018-06-13T09:05:38.533Z,64.17
2018-06-13T09:06:38.539Z,62.97
2018-06-13T09:07:38.542Z,63.69
2018-06-13T09:08:38.549Z,64.16
2018-06-13T09:09:38.556Z,64.65
2018-06-13T09:10:38.560Z,64.4
2018-06-13T09:11:38.580Z,63.42
2018-06-13T09:12:38.558Z,63.42
2018-06-13T09:13:38.576Z,63.97
2018-06-13T09:14:38.537Z,63.98
2018-06-13T09:15:38.539Z,62.89
2018-06-13T09:16:38.550Z,62.69
2018-06-13T09:17:38.570Z,63.26
2018-06-13T09:18:38.555Z,63.46
2018-06-13T09:19:38.558Z,62.92
2018-06-13T09:20:38.554Z,63
2018-06-13T09:21:38.558Z,63.26
2018-06-13T09:22:38.547Z,61.88
2018-06-13T09:23:38.642Z,61.53
2018-06-13T09:24:38.583Z,62.69
2018-06-13T09:25:38.553Z,60.46
2018-06-13T09:26:38.872Z,59.77
2018-06-13T09:27:38.753Z,60.04
2018-06-13T09:28:38.557Z,60.5
2018-06-13T09:29:38.636Z,60.71
2018-06-13T09:30:38.562Z,60.9
2018-06-13T09:31:38.577Z,61.59
2018-06-13T09:32:39.207Z,62.28
2018-06-13T09:33:38.586Z,62.25
2018-06-13T09:34:38.552Z,63.05
2018-06-13T09:35:38.747Z,62.71
2018-06-13T09:36:38.573Z,62.03
2018-06-13T09:37:38.712Z,61.88
2018-06-13T09:38:38.608Z,61.96
2018-06-13T09:39:38.585Z,62.12
2018-06-13T09:40:38.560Z,62.6
2018-06-13T09:41:38.584Z,62.87
2018-06-13T09:42:38.578Z,63.32
2018-06-13T09:43:38.584Z,63.01
2018-06-13T09:44:38.574Z,63.24
2018-06-13T09:45:38.606Z,63.54
2018-06-13T09:46:38.572Z,63.12
2018-06-13T09:47:38.593Z,64.11
2018-06-13T09:48:38.615Z,63.94
2018-06-13T09:49:38.562Z,63.85
2018-06-13T09:50:38.564Z,63.75
2018-06-13T09:51:38.580Z,63.56
2018-06-13T09:52:38.575Z,63.93
2018-06-13T09:53:38.576Z,64.41
2018-06-13T09:54:38.568Z,62.93
2018-06-13T09:55:38.562Z,63.31
2018-06-13T09:56:38.635Z,63.03
2018-06-13T09:57:38.590Z,63.2
2018-06-13T09:58:38.594Z,63.8
2018-06-13T09:59:38.598Z,63.49
2018-06-13T10:00:38.579Z,63.71
2018-06-13T10:01:38.646Z,63.42
2018-06-13T10:02:38.648Z,63.33
2018-06-13T10:03:38.589Z,64.19
2018-06-13T10:04:38.686Z,64.62
2018-06-13T10:05:38.590Z,64.21
2018-06-13T10:06:38.782Z,64.03
2018-06-13T10:07:38.581Z,62.89
2018-06-13T10:08:38.660Z,63.38
2018-06-13T10:09:38.565Z,63.94
2018-06-13T10:10:38.594Z,63.68
2018-06-13T10:11:38.572Z,63.58
2018-06-13T10:12:38.680Z,64.07
2018-06-13T10:13:38.581Z,63.67
2018-06-13T10:14:38.587Z,63.24
2018-06-13T10:15:38.589Z,63.61
2018-06-13T10:16:38.582Z,63.19
2018-06-13T10:17:38.607Z,62.2
2018-06-13T10:18:38.652Z,61.73
2018-06-13T10:19:38.598Z,60.54
2018-06-13T10:20:38.598Z,60.31
2018-06-13T10:21:38.629Z,59.94
2018-06-13T10:22:38.587Z,59.18
2018-06-13T10:23:38.659Z,59.26
2018-06-13T10:24:38.611Z,59.64
2018-06-13T10:25:38.610Z,58.77
2018-06-13T10:26:38.633Z,58.77
2018-06-13T10:27:38.602Z,58.84
2018-06-13T10:28:38.599Z,58.35
2018-06-13T10:29:38.594Z,58.53
2018-06-13T10:30:38.617Z,58.59
2018-06-13T10:31:38.607Z,59.42
2018-06-13T10:32:38.602Z,58.89
2018-06-13T10:33:38.636Z,59.08
2018-06-13T10:34:38.590Z,59.11
2018-06-13T10:35:38.605Z,60.01
2018-06-13T10:36:39.099Z,59.92
2018-06-13T10:37:38.586Z,60.33
2018-06-13T10:38:38.796Z,60.18
2018-06-13T10:39:38.664Z,59.96
2018-06-13T10:40:38.623Z,59.53
2018-06-13T10:41:38.605Z,59.67
2018-06-13T10:42:38.762Z,60.45
2018-06-13T10:43:38.603Z,60.4
2018-06-13T10:44:38.630Z,60.23
2018-06-13T10:45:38.828Z,61.16
2018-06-13T10:46:38.604Z,60.77
2018-06-13T10:47:38.603Z,61.25
2018-06-13T10:48:38.794Z,60.95
2018-06-13T10:49:38.753Z,60.46
2018-06-13T10:50:38.648Z,61.05
2018-06-13T10:51:38.689Z,61.82
2018-06-13T10:52:38.618Z,61.14
2018-06-13T10:53:38.909Z,61.37
2018-06-13T10:54:38.641Z,60.19
2018-06-13T10:55:38.680Z,60.67
2018-06-13T10:56:38.608Z,60.82
2018-06-13T10:57:38.688Z,60.5
2018-06-13T10:58:38.886Z,59.87
2018-06-13T10:59:38.599Z,60.42
2018-06-13T11:00:38.629Z,60.33
2018-06-13T11:01:38.637Z,60.02
2018-06-13T11:02:38.921Z,60.09
2018-06-13T11:03:38.645Z,60.2
2018-06-13T11:04:38.742Z,59.65
2018-06-13T11:05:38.694Z,59.94
2018-06-13T11:06:38.633Z,60.13
2018-06-13T11:07:38.667Z,60.08
2018-06-13T11:08:38.647Z,59.41
2018-06-13T11:09:38.767Z,59.17
2018-06-13T11:10:38.601Z,58.63
2018-06-13T11:11:38.720Z,59.95
2018-06-13T11:12:38.609Z,58.19
2018-06-13T11:13:39.337Z,58.14
2018-06-13T11:14:39.320Z,58.74
2018-06-13T11:15:39.429Z,59.45
2018-06-13T11:16:39.371Z,57.84
2018-06-13T11:17:39.359Z,58.47
2018-06-13T11:18:39.456Z,58.84
2018-06-13T11:19:39.669Z,59.83
2018-06-13T11:20:39.383Z,59.79
2018-06-13T11:21:39.370Z,59.78
2018-06-13T11:22:39.369Z,59.88
2018-06-13T11:23:39.359Z,60.03
2018-06-13T11:24:39.433Z,59.95
2018-06-13T11:25:39.393Z,59.65
2018-06-13T11:26:39.400Z,58.8
2018-06-13T11:27:39.699Z,59.5
2018-06-13T11:28:39.332Z,59.26
2018-06-13T11:29:39.409Z,58.99
2018-06-13T11:30:39.327Z,59.21
2018-06-13T11:31:39.427Z,59.61
2018-06-13T11:32:39.380Z,58.55
2018-06-13T11:33:39.412Z,58.7
2018-06-13T11:34:39.353Z,58.25
2018-06-13T11:35:39.352Z,56.63
2018-06-13T11:36:39.301Z,56.63
2018-06-13T11:37:39.341Z,55.22
2018-06-13T11:38:39.361Z,55.98
2018-06-13T11:39:39.308Z,55.58
2018-06-13T11:40:39.315Z,55.68
2018-06-13T11:41:39.349Z,55.49
2018-06-13T11:42:39.375Z,55.45
2018-06-13T11:43:39.397Z,56.28
2018-06-13T11:44:39.347Z,54.57
2018-06-13T11:45:39.321Z,55.83
2018-06-13T11:46:39.332Z,54.04
2018-06-13T11:47:39.346Z,54.54
2018-06-13T11:48:39.443Z,56.02
2018-06-13T11:49:39.338Z,55.47
2018-06-13T11:50:39.349Z,55.29
2018-06-13T11:51:39.542Z,56.24
2018-06-13T11:52:39.395Z,56.22
2018-06-13T11:53:39.436Z,56.19
2018-06-13T11:54:39.547Z,55.3
2018-06-13T11:55:39.527Z,55.96
2018-06-13T11:56:39.892Z,56.35
2018-06-13T11:57:39.392Z,57.1
2018-06-13T11:58:39.307Z,56.18
2018-06-13T11:59:39.841Z,57.14
2018-06-13T12:00:39.640Z,57.24
2018-06-13T12:01:39.447Z,55.35
2018-06-13T12:02:39.373Z,55.79
2018-06-13T12:03:39.366Z,56.12
2018-06-13T12:04:39.398Z,56.24
2018-06-13T12:05:39.391Z,55.58
2018-06-13T12:06:39.595Z,56.71
2018-06-13T12:07:39.411Z,56.39
2018-06-13T12:08:39.555Z,57.08
2018-06-13T12:09:39.368Z,57.27
2018-06-13T12:10:39.408Z,57.25
2018-06-13T12:11:39.584Z,57.37
2018-06-13T12:12:38.775Z,57.89
2018-06-13T12:13:38.673Z,56.93
2018-06-13T12:14:38.636Z,56.62
2018-06-13T12:15:38.688Z,57
2018-06-13T12:16:38.689Z,57.26
2018-06-13T12:17:38.669Z,57.74
2018-06-13T12:18:38.649Z,56.88
2018-06-13T12:19:38.665Z,57.27
2018-06-13T12:20:38.739Z,57.17
2018-06-13T12:21:38.692Z,57.57
2018-06-13T12:22:38.694Z,57.7
2018-06-13T12:23:38.706Z,56.84
2018-06-13T12:24:38.650Z,57.53
2018-06-13T12:25:38.659Z,57.36
2018-06-13T12:26:38.658Z,56.3
2018-06-13T12:27:38.693Z,56.35
2018-06-13T12:28:38.706Z,55.49
2018-06-13T12:29:38.677Z,56.19
2018-06-13T12:30:38.696Z,56.25
2018-06-13T12:31:38.682Z,55.21
2018-06-13T12:32:38.663Z,56.21
2018-06-13T12:33:38.738Z,56.77
2018-06-13T12:34:38.668Z,56.72
2018-06-13T12:35:39.638Z,56.27
2018-06-13T12:36:38.662Z,55.93
2018-06-13T12:37:38.673Z,56.44
2018-06-13T12:38:38.675Z,55.92
2018-06-13T12:39:38.671Z,56.33
2018-06-13T12:40:40.187Z,55.37
2018-06-13T12:41:38.652Z,55.63
2018-06-13T12:42:38.682Z,55.33
2018-06-13T12:43:38.665Z,56.12
2018-06-13T12:44:38.691Z,55.55
2018-06-13T12:45:38.681Z,55.33
2018-06-13T12:46:38.685Z,55.41
2018-06-13T12:47:38.654Z,55.13
2018-06-13T12:48:38.690Z,55.6
2018-06-13T12:49:38.722Z,55.29
2018-06-13T12:50:38.677Z,54.15
2018-06-13T12:51:38.684Z,54.25
2018-06-13T12:52:38.692Z,54.9
2018-06-13T12:53:38.654Z,54.91
2018-06-13T12:54:38.660Z,54.84
2018-06-13T12:55:38.706Z,54.65